createdAt,value
2023-02-01T00:02:24.236Z,6.00
2023-02-01T00:04:51.519Z,6.10
2023-02-01T00:07:18.478Z,5.13
2023-02-01T00:09:45.842Z,5.50
2023-02-01T00:12:12.908Z,5.20
2023-02-01T00:14:40.796Z,5.10
2023-02-01T00:17:08.208Z,5.70
2023-02-01T00:19:35.897Z,5.23
2023-02-01T00:22:02.878Z,5.10
2023-02-01T00:24:30.076Z,5.57
2023-02-01T00:26:57.141Z,5.60
2023-02-01T00:29:24.435Z,5.07
2023-02-01T00:31:53.109Z,4.50
2023-02-01T00:34:21.417Z,5.07
2023-02-01T00:36:48.569Z,4.50
2023-02-01T00:39:16.631Z,4.40
2023-02-01T00:41:43.613Z,3.80
2023-02-01T00:44:11.252Z,3.93
2023-02-01T00:46:38.396Z,2.60
2023-02-01T00:49:08.261Z,3.10
2023-02-01T00:51:35.286Z,3.17
2023-02-01T00:54:02.647Z,2.47
2023-02-01T00:56:29.733Z,2.07
2023-02-01T00:58:57.332Z,2.33
2023-02-01T01:01:29.077Z,2.63
2023-02-01T01:03:59.685Z,1.80
2023-02-01T01:06:32.219Z,2.23
2023-02-01T01:09:01.928Z,1.40
2023-02-01T01:11:32.237Z,1.80
2023-02-01T01:14:00.476Z,1.40
2023-02-01T01:16:29.569Z,1.40
2023-02-01T01:18:57.978Z,1.30
2023-02-01T01:21:26.716Z,1.30
2023-02-01T01:23:54.383Z,1.00
2023-02-01T01:26:26.800Z,1.20
2023-02-01T01:28:57.049Z,1.33
2023-02-01T01:31:25.227Z,1.13
2023-02-01T01:33:55.444Z,1.07
2023-02-01T01:36:23.360Z,0.97
2023-02-01T01:38:51.262Z,1.23
2023-02-01T01:41:21.560Z,1.33
2023-02-01T01:43:59.267Z,1.10
2023-02-01T01:46:29.423Z,1.07
2023-02-01T01:49:19.790Z,1.13
2023-02-01T01:51:53.509Z,1.10
2023-02-01T01:54:29.612Z,1.87
2023-02-01T01:57:04.841Z,1.40
2023-02-01T01:59:33.499Z,1.37
2023-02-01T02:02:00.585Z,0.93
2023-02-01T02:04:28.024Z,1.20
2023-02-01T02:07:12.843Z,1.40
2023-02-01T02:09:45.479Z,1.87
2023-02-01T02:12:15.167Z,1.50
2023-02-01T02:14:42.424Z,1.67
2023-02-01T02:17:37.300Z,1.63
2023-02-01T02:20:46.000Z,1.33
2023-02-01T02:23:35.335Z,1.40
2023-02-01T02:26:09.062Z,1.30
2023-02-01T02:28:48.156Z,1.77
2023-02-01T02:31:40.274Z,1.67
2023-02-01T02:34:27.062Z,1.67
2023-02-01T02:37:06.343Z,2.37
2023-02-01T02:39:40.231Z,2.47
2023-02-01T02:42:46.933Z,1.70
2023-02-01T02:46:03.789Z,1.73
2023-02-01T02:48:43.490Z,2.30
2023-02-01T02:51:47.768Z,1.60
2023-02-01T02:54:38.332Z,2.00
2023-02-01T02:57:27.317Z,2.27
2023-02-01T03:00:16.262Z,2.53
2023-02-01T03:03:02.170Z,2.23
2023-02-01T03:05:37.310Z,1.77
2023-02-01T03:08:11.815Z,1.87
2023-02-01T03:10:38.967Z,1.60
2023-02-01T03:13:10.907Z,1.90
2023-02-01T03:15:47.471Z,2.00
2023-02-01T03:18:20.034Z,2.33
2023-02-01T03:20:53.413Z,1.77
2023-02-01T03:23:24.317Z,1.70
2023-02-01T03:25:54.319Z,2.30
2023-02-01T03:28:24.730Z,2.17
2023-02-01T03:30:52.083Z,2.10
2023-02-01T03:33:23.044Z,2.80
2023-02-01T03:36:16.625Z,2.20
2023-02-01T03:39:16.124Z,1.70
2023-02-01T03:41:49.728Z,1.87
2023-02-01T03:44:18.729Z,2.37
2023-02-01T03:47:09.617Z,2.30
2023-02-01T03:49:55.126Z,1.90
2023-02-01T03:52:37.386Z,2.97
2023-02-01T03:55:05.936Z,2.27
2023-02-01T03:57:37.197Z,2.30
2023-02-01T04:00:11.184Z,1.93
2023-02-01T04:02:38.551Z,2.30
2023-02-01T04:05:05.742Z,2.40
2023-02-01T04:07:33.164Z,2.10
2023-02-01T04:10:00.160Z,2.03
2023-02-01T04:12:27.746Z,2.20
2023-02-01T04:14:54.666Z,2.40
2023-02-01T04:17:22.001Z,2.00
2023-02-01T04:19:48.945Z,1.80
2023-02-01T04:24:42.296Z,2.17
2023-02-01T04:27:09.569Z,2.20
2023-02-01T04:29:36.497Z,1.90
2023-02-01T04:32:03.878Z,2.43
2023-02-01T04:34:30.890Z,2.13
2023-02-01T04:36:58.232Z,2.20
2023-02-01T04:39:25.244Z,2.30
2023-02-01T04:41:53.113Z,2.53
2023-02-01T04:44:20.145Z,2.00
2023-02-01T04:46:48.302Z,2.17
2023-02-01T04:49:15.691Z,1.87
2023-02-01T04:51:43.618Z,2.93
2023-02-01T04:54:14.010Z,1.60
2023-02-01T04:56:41.545Z,2.67
2023-02-01T04:59:08.520Z,2.67
2023-02-01T05:01:35.867Z,2.43
2023-02-01T05:04:02.929Z,2.40
2023-02-01T05:06:30.202Z,1.93
2023-02-01T05:08:57.201Z,2.87
2023-02-01T05:11:43.012Z,1.60
2023-02-01T05:14:10.021Z,2.13
2023-02-01T05:16:38.508Z,2.33
2023-02-01T05:19:05.460Z,2.07
2023-02-01T05:21:32.703Z,1.60
2023-02-01T05:24:13.911Z,1.43
2023-02-01T05:26:41.989Z,2.37
2023-02-01T05:29:10.183Z,1.83
2023-02-01T05:31:37.919Z,2.40
2023-02-01T05:34:05.786Z,1.83
2023-02-01T05:36:33.158Z,1.50
2023-02-01T05:39:00.211Z,2.60
2023-02-01T05:41:27.443Z,2.67
2023-02-01T05:43:54.926Z,2.47
2023-02-01T05:46:22.452Z,2.30
2023-02-01T05:48:49.482Z,2.53
2023-02-01T05:51:16.725Z,2.70
2023-02-01T05:53:43.835Z,2.17
2023-02-01T05:56:11.157Z,2.03
2023-02-01T05:58:38.130Z,2.60
2023-02-01T06:01:05.570Z,1.93
2023-02-01T06:03:32.628Z,2.37
2023-02-01T06:06:01.412Z,1.73
2023-02-01T06:08:28.882Z,2.13
2023-02-01T06:11:06.306Z,2.83
2023-02-01T06:13:34.665Z,1.97
2023-02-01T06:16:58.671Z,2.53
2023-02-01T06:20:02.496Z,2.77
2023-02-01T06:22:38.644Z,2.57
2023-02-01T06:25:07.943Z,2.43
2023-02-01T06:27:35.418Z,2.70
2023-02-01T06:30:02.701Z,1.63
2023-02-01T06:32:29.957Z,2.23
2023-02-01T06:34:57.767Z,1.87
2023-02-01T06:37:26.332Z,2.33
2023-02-01T06:39:53.285Z,2.23
2023-02-01T06:42:20.640Z,2.33
2023-02-01T06:44:47.633Z,2.50
2023-02-01T06:47:14.911Z,2.60
2023-02-01T06:49:41.942Z,1.97
2023-02-01T06:52:09.288Z,3.37
2023-02-01T06:54:38.417Z,2.73
2023-02-01T06:57:06.068Z,2.47
2023-02-01T06:59:33.124Z,2.53
2023-02-01T07:02:00.433Z,2.97
2023-02-01T07:04:27.390Z,2.40
2023-02-01T07:07:00.402Z,1.90
2023-02-01T07:09:27.453Z,2.47
2023-02-01T07:11:54.680Z,2.03
2023-02-01T07:14:21.658Z,2.83
2023-02-01T07:16:48.882Z,1.87
2023-02-01T07:19:15.936Z,2.30
2023-02-01T07:21:43.772Z,1.90
2023-02-01T07:24:10.782Z,2.10
2023-02-01T07:26:38.621Z,2.47
2023-02-01T07:29:05.611Z,2.00
2023-02-01T07:31:32.817Z,2.10
2023-02-01T07:34:01.886Z,2.33
2023-02-01T07:36:29.316Z,2.27
2023-02-01T07:38:56.865Z,1.70
2023-02-01T07:41:24.476Z,2.97
2023-02-01T07:43:54.030Z,3.57
2023-02-01T07:46:22.050Z,2.43
2023-02-01T07:48:48.995Z,2.53
2023-02-01T07:51:17.894Z,3.30
2023-02-01T07:53:45.723Z,3.57
2023-02-01T07:56:21.091Z,2.53
2023-02-01T07:58:53.065Z,2.20
2023-02-01T08:01:25.383Z,2.80
2023-02-01T08:03:54.214Z,2.23
2023-02-01T08:06:22.689Z,2.27
2023-02-01T08:08:50.720Z,2.83
2023-02-01T08:11:18.962Z,2.67
2023-02-01T08:13:46.523Z,3.43
2023-02-01T08:16:16.360Z,2.43
2023-02-01T08:18:43.469Z,2.47
2023-02-01T08:21:23.221Z,2.67
2023-02-01T08:23:50.589Z,2.00
2023-02-01T08:26:25.861Z,2.47
2023-02-01T08:28:58.310Z,2.30
2023-02-01T08:31:27.629Z,3.07
2023-02-01T08:33:57.094Z,3.00
2023-02-01T08:36:26.134Z,2.53
2023-02-01T08:38:53.595Z,2.90
2023-02-01T08:41:23.717Z,2.97
2023-02-01T08:43:50.935Z,2.90
2023-02-01T08:46:18.424Z,2.03
2023-02-01T08:48:47.735Z,2.63
2023-02-01T08:51:16.667Z,3.40
2023-02-01T08:53:43.791Z,2.70
2023-02-01T08:56:13.315Z,3.73
2023-02-01T08:58:40.796Z,3.03
2023-02-01T09:01:10.585Z,2.90
2023-02-01T09:03:37.649Z,2.53
2023-02-01T09:06:07.349Z,3.10
2023-02-01T09:08:35.366Z,3.23
2023-02-01T09:11:04.416Z,2.30
2023-02-01T09:13:31.763Z,3.07
2023-02-01T09:16:00.934Z,2.90
2023-02-01T09:18:28.151Z,2.50
2023-02-01T09:20:55.414Z,2.17
2023-02-01T09:23:23.437Z,3.20
2023-02-01T09:25:52.476Z,2.73
2023-02-01T09:28:20.183Z,2.93
2023-02-01T09:30:47.699Z,3.17
2023-02-01T09:33:14.962Z,3.27
2023-02-01T09:35:42.363Z,2.33
2023-02-01T09:38:09.460Z,2.20
2023-02-01T09:40:36.807Z,2.63
2023-02-01T09:43:41.289Z,2.63
2023-02-01T09:46:31.111Z,2.60
2023-02-01T09:49:03.273Z,2.10
2023-02-01T09:51:45.586Z,2.63
2023-02-01T09:54:26.057Z,3.00
2023-02-01T09:57:09.473Z,2.87
2023-02-01T09:59:50.188Z,2.87
2023-02-01T10:02:29.568Z,3.17
2023-02-01T10:05:00.939Z,2.40
2023-02-01T10:08:00.739Z,2.57
2023-02-01T10:10:40.004Z,2.83
2023-02-01T10:13:36.299Z,3.60
2023-02-01T10:16:43.983Z,3.80
2023-02-01T10:19:52.732Z,3.43
2023-02-01T10:23:05.314Z,2.80
2023-02-01T10:25:55.999Z,2.93
2023-02-01T10:28:25.283Z,3.33
2023-02-01T10:30:57.846Z,2.77
2023-02-01T10:33:46.161Z,2.60
2023-02-01T10:36:31.506Z,2.60
2023-02-01T10:39:01.698Z,2.23
2023-02-01T10:41:36.405Z,3.30
2023-02-01T10:44:17.233Z,2.17
2023-02-01T10:46:44.686Z,2.33
2023-02-01T10:49:38.073Z,3.07
2023-02-01T10:52:18.390Z,2.90
2023-02-01T10:54:45.541Z,3.23
2023-02-01T10:57:29.349Z,2.57
2023-02-01T10:59:56.796Z,2.57
2023-02-01T11:02:42.472Z,2.80
2023-02-01T11:05:13.143Z,3.40
2023-02-01T11:07:47.141Z,3.20
2023-02-01T11:10:37.468Z,3.03
2023-02-01T11:13:06.315Z,6.10
2023-02-01T11:15:33.359Z,3.20
2023-02-01T11:18:17.256Z,2.80
2023-02-01T11:20:47.872Z,3.40
2023-02-01T11:23:21.195Z,2.70
2023-02-01T11:26:00.020Z,3.87
2023-02-01T11:28:36.272Z,3.13
2023-02-01T11:31:06.849Z,2.90
2023-02-01T11:33:38.059Z,3.70
2023-02-01T11:36:17.956Z,3.27
2023-02-01T11:39:12.810Z,3.27
2023-02-01T11:42:05.580Z,2.73
2023-02-01T11:44:40.945Z,3.27
2023-02-01T11:47:26.698Z,3.90
2023-02-01T11:50:03.102Z,2.90
2023-02-01T11:52:53.119Z,2.70
2023-02-01T11:55:46.372Z,3.17
2023-02-01T11:58:28.940Z,3.27
2023-02-01T12:01:42.606Z,3.40
2023-02-01T12:04:28.183Z,2.80
2023-02-01T12:06:58.527Z,3.13
2023-02-01T12:09:45.753Z,3.20
2023-02-01T12:12:34.475Z,3.70
2023-02-01T12:15:27.551Z,3.90
2023-02-01T12:18:24.446Z,2.87
2023-02-01T12:21:12.229Z,3.27
2023-02-01T12:23:51.723Z,4.03
2023-02-01T12:26:56.072Z,3.63
2023-02-01T12:29:35.223Z,2.70
2023-02-01T12:32:23.413Z,3.43
2023-02-01T12:35:13.407Z,3.33
2023-02-01T12:37:56.629Z,3.53
2023-02-01T12:40:39.063Z,4.10
2023-02-01T12:43:16.381Z,4.77
2023-02-01T12:45:57.053Z,3.50
2023-02-01T12:48:48.052Z,3.77
2023-02-01T12:51:20.988Z,3.30
2023-02-01T12:54:03.203Z,3.30
2023-02-01T12:57:02.778Z,6.17
2023-02-01T12:59:35.879Z,4.13
2023-02-01T13:02:11.916Z,3.63
2023-02-01T13:05:14.520Z,3.53
2023-02-01T13:07:57.462Z,4.23
2023-02-01T13:10:42.540Z,4.30
2023-02-01T13:13:18.667Z,3.60
2023-02-01T13:15:58.376Z,4.40
2023-02-01T13:18:33.350Z,3.87
2023-02-01T13:21:06.863Z,4.03
2023-02-01T13:23:40.581Z,3.87
2023-02-01T13:26:07.527Z,4.10
2023-02-01T13:28:50.206Z,3.67
2023-02-01T13:31:40.590Z,3.60
2023-02-01T13:34:26.708Z,3.80
2023-02-01T13:36:59.900Z,3.87
2023-02-01T13:39:48.857Z,3.40
2023-02-01T13:42:29.042Z,3.77
2023-02-01T13:45:06.716Z,3.50
2023-02-01T13:47:39.994Z,3.03
2023-02-01T13:50:29.909Z,3.53
2023-02-01T13:53:03.684Z,3.30
2023-02-01T13:55:37.559Z,3.63
2023-02-01T13:58:31.030Z,3.77
2023-02-01T14:01:37.149Z,3.77
2023-02-01T14:04:07.382Z,2.93
2023-02-01T14:06:44.732Z,3.10
2023-02-01T14:09:14.614Z,3.17
2023-02-01T14:11:49.239Z,4.00
2023-02-01T14:14:16.149Z,3.40
2023-02-01T14:17:03.646Z,3.07
2023-02-01T14:19:35.375Z,2.97
2023-02-01T14:22:25.137Z,2.90
2023-02-01T14:24:59.236Z,3.30
2023-02-01T14:27:29.525Z,3.17
2023-02-01T14:30:02.495Z,3.70
2023-02-01T14:32:37.665Z,3.80
2023-02-01T14:35:09.027Z,3.57
2023-02-01T14:37:39.994Z,3.33
2023-02-01T14:40:20.493Z,3.23
2023-02-01T14:42:50.100Z,3.80
2023-02-01T14:45:19.984Z,4.17
2023-02-01T14:47:48.877Z,3.83
2023-02-01T14:50:28.101Z,3.80
2023-02-01T14:53:13.467Z,3.30
2023-02-01T14:56:10.691Z,2.60
2023-02-01T14:58:47.795Z,2.83
2023-02-01T15:01:31.883Z,2.30
2023-02-01T15:04:11.425Z,3.27
2023-02-01T15:06:48.340Z,3.03
2023-02-01T15:09:35.793Z,2.80
2023-02-01T15:12:05.600Z,3.30
2023-02-01T15:14:41.217Z,3.13
2023-02-01T15:17:27.064Z,2.93
2023-02-01T15:20:02.811Z,3.13
2023-02-01T15:22:32.823Z,3.47
2023-02-01T15:25:01.237Z,3.10
2023-02-01T15:27:29.807Z,2.77
2023-02-01T15:30:17.141Z,3.00
2023-02-01T15:32:44.347Z,2.80
2023-02-01T15:35:37.279Z,3.17
2023-02-01T15:38:41.154Z,2.90
2023-02-01T15:41:18.911Z,2.47
2023-02-01T15:43:54.339Z,3.07
2023-02-01T15:46:34.036Z,3.20
2023-02-01T15:49:01.332Z,3.00
2023-02-01T15:51:31.637Z,3.30
2023-02-01T15:54:05.887Z,3.20
2023-02-01T15:56:40.267Z,3.33
2023-02-01T15:59:16.145Z,4.40
2023-02-01T16:01:43.927Z,4.20
2023-02-01T16:04:21.993Z,3.67
2023-02-01T16:06:53.658Z,4.30
2023-02-01T16:09:26.151Z,3.77
2023-02-01T16:11:59.613Z,3.40
2023-02-01T16:14:27.723Z,4.10
2023-02-01T16:16:58.001Z,4.23
2023-02-01T16:19:29.009Z,3.80
2023-02-01T16:21:57.215Z,3.50
2023-02-01T16:24:26.847Z,3.53
2023-02-01T16:26:54.539Z,3.50
2023-02-01T16:29:22.658Z,3.97
2023-02-01T16:31:51.228Z,4.33
2023-02-01T16:34:18.803Z,4.50
2023-02-01T16:36:54.477Z,4.30
2023-02-01T16:39:21.967Z,4.53
2023-02-01T16:41:49.279Z,4.47
2023-02-01T16:44:16.352Z,4.10
2023-02-01T16:46:48.911Z,4.83
2023-02-01T16:49:24.783Z,4.60
2023-02-01T16:51:57.315Z,5.00
2023-02-01T16:54:24.478Z,4.63
2023-02-01T16:56:51.742Z,4.40
2023-02-01T16:59:18.701Z,3.93
2023-02-01T17:01:45.943Z,4.60
2023-02-01T17:04:13.495Z,4.30
2023-02-01T17:06:41.154Z,4.30
2023-02-01T17:09:09.884Z,4.63
2023-02-01T17:11:38.726Z,4.50
2023-02-01T17:14:25.999Z,4.90
2023-02-01T17:16:53.846Z,5.20
2023-02-01T17:19:25.968Z,5.07
2023-02-01T17:21:57.000Z,5.10
2023-02-01T17:24:35.792Z,4.83
2023-02-01T17:27:04.549Z,4.90
2023-02-01T17:29:31.523Z,4.40
2023-02-01T17:32:00.598Z,4.47
2023-02-01T17:34:28.009Z,4.97
2023-02-01T17:36:55.530Z,4.60
2023-02-01T17:39:41.416Z,4.37
2023-02-01T17:42:12.570Z,4.30
2023-02-01T17:44:39.570Z,4.57
2023-02-01T17:47:06.815Z,5.07
2023-02-01T17:49:35.914Z,6.00
2023-02-01T17:52:03.316Z,4.63
2023-02-01T17:54:30.622Z,4.80
2023-02-01T17:57:00.676Z,4.27
2023-02-01T17:59:28.091Z,4.83
2023-02-01T18:02:00.839Z,4.23
2023-02-01T18:04:27.986Z,4.17
2023-02-01T18:06:55.297Z,4.93
2023-02-01T18:09:23.392Z,4.53
2023-02-01T18:11:50.780Z,3.90
2023-02-01T18:14:17.800Z,4.17
2023-02-01T18:16:45.137Z,4.00
2023-02-01T18:19:12.133Z,3.47
2023-02-01T18:21:42.628Z,4.90
2023-02-01T18:24:14.398Z,4.53
2023-02-01T18:26:42.319Z,4.70
2023-02-01T18:29:09.677Z,3.83
2023-02-01T18:31:46.291Z,3.73
2023-02-01T18:34:21.248Z,5.07
2023-02-01T18:36:51.793Z,3.63
2023-02-01T18:39:19.081Z,4.20
2023-02-01T18:41:48.045Z,4.20
2023-02-01T18:44:16.500Z,4.53
2023-02-01T18:46:44.241Z,4.30
2023-02-01T18:49:14.015Z,4.50
2023-02-01T18:51:42.631Z,4.53
2023-02-01T18:54:12.327Z,3.87
2023-02-01T18:56:40.042Z,4.47
2023-02-01T18:59:07.107Z,4.27
2023-02-01T19:01:34.340Z,3.47
2023-02-01T19:04:07.457Z,3.30
2023-02-01T19:06:45.332Z,3.77
2023-02-01T19:09:12.277Z,4.03
2023-02-01T19:11:39.499Z,3.73
2023-02-01T19:14:07.134Z,3.63
2023-02-01T19:16:36.078Z,3.43
2023-02-01T19:19:03.200Z,3.97
2023-02-01T19:21:30.466Z,3.37
2023-02-01T19:23:57.520Z,4.13
2023-02-01T19:26:24.781Z,4.33
2023-02-01T19:28:51.800Z,3.37
2023-02-01T19:31:19.085Z,3.73
2023-02-01T19:33:47.305Z,3.27
2023-02-01T19:36:14.871Z,3.73
2023-02-01T19:38:41.908Z,3.67
2023-02-01T19:41:09.181Z,3.87
2023-02-01T19:43:36.992Z,3.67
2023-02-01T19:46:04.539Z,3.60
2023-02-01T19:48:31.878Z,3.63
2023-02-01T19:50:59.356Z,3.63
2023-02-01T19:53:27.980Z,3.30
2023-02-01T19:55:57.011Z,4.17
2023-02-01T19:58:26.044Z,4.57
2023-02-01T20:00:56.634Z,4.03
2023-02-01T20:03:24.193Z,4.97
2023-02-01T20:05:52.945Z,4.10
2023-02-01T20:08:20.598Z,3.70
2023-02-01T20:10:47.864Z,3.93
2023-02-01T20:13:15.374Z,4.90
2023-02-01T20:15:42.856Z,4.50
2023-02-01T20:18:10.422Z,4.83
2023-02-01T20:20:37.712Z,5.10
2023-02-01T20:23:06.336Z,4.27
2023-02-01T20:25:36.038Z,4.80
2023-02-01T20:28:03.137Z,5.33
2023-02-01T20:30:32.284Z,4.57
2023-02-01T20:33:00.719Z,4.30
2023-02-01T20:35:29.095Z,4.63
2023-02-01T20:37:57.177Z,5.67
2023-02-01T20:40:24.587Z,4.83
2023-02-01T20:42:51.646Z,4.87
2023-02-01T20:45:18.846Z,4.50
2023-02-01T20:47:50.902Z,4.40
2023-02-01T20:50:18.879Z,5.20
2023-02-01T20:52:45.882Z,5.40
2023-02-01T20:55:13.084Z,5.57
2023-02-01T20:57:40.138Z,4.77
2023-02-01T21:00:10.242Z,5.33
2023-02-01T21:02:37.644Z,4.50
2023-02-01T21:05:05.641Z,4.43
2023-02-01T21:07:32.620Z,4.93
2023-02-01T21:09:59.981Z,4.60
2023-02-01T21:12:27.063Z,4.63
2023-02-01T21:14:55.323Z,4.97
2023-02-01T21:17:22.904Z,4.47
2023-02-01T21:19:50.125Z,5.30
2023-02-01T21:22:17.111Z,4.37
2023-02-01T21:24:44.444Z,4.70
2023-02-01T21:27:11.927Z,4.00
2023-02-01T21:29:39.528Z,5.47
2023-02-01T21:32:07.868Z,4.40
2023-02-01T21:34:35.994Z,4.17
2023-02-01T21:37:03.722Z,4.43
2023-02-01T21:39:31.088Z,4.87
2023-02-01T21:42:18.266Z,5.10
2023-02-01T21:44:48.864Z,4.40
2023-02-01T21:47:17.794Z,4.03
2023-02-01T21:49:47.143Z,5.10
2023-02-01T21:52:15.473Z,4.70
2023-02-01T21:54:42.781Z,5.73
2023-02-01T21:57:12.604Z,4.70
2023-02-01T21:59:41.233Z,4.93
2023-02-01T22:02:14.127Z,4.97
2023-02-01T22:04:41.568Z,4.33
2023-02-01T22:07:09.186Z,5.00
2023-02-01T22:09:36.631Z,4.77
2023-02-01T22:12:04.243Z,4.10
2023-02-01T22:14:31.531Z,4.53
2023-02-01T22:16:58.619Z,4.50
2023-02-01T22:19:25.936Z,4.43
2023-02-01T22:21:53.038Z,3.97
2023-02-01T22:24:21.400Z,4.00
2023-02-01T22:26:49.283Z,4.30
2023-02-01T22:29:19.224Z,4.00
2023-02-01T22:31:47.193Z,4.17
2023-02-01T22:34:15.562Z,4.20
2023-02-01T22:36:42.775Z,4.60
2023-02-01T22:39:10.354Z,4.67
2023-02-01T22:41:37.332Z,4.53
2023-02-01T22:44:04.694Z,4.57
2023-02-01T22:46:31.793Z,4.90
2023-02-01T22:49:00.111Z,4.40
2023-02-01T22:51:29.459Z,4.93
2023-02-01T22:54:00.050Z,4.73
2023-02-01T22:56:37.422Z,4.37
2023-02-01T22:59:07.197Z,4.83
2023-02-01T23:01:34.892Z,4.50
2023-02-01T23:04:06.713Z,4.73
2023-02-01T23:06:34.423Z,4.20
2023-02-01T23:09:05.331Z,3.40
2023-02-01T23:11:32.373Z,3.40
2023-02-01T23:13:59.698Z,3.70
2023-02-01T23:16:26.781Z,3.63
2023-02-01T23:18:54.124Z,4.30
2023-02-01T23:21:23.243Z,4.10
2023-02-01T23:23:53.123Z,3.77
2023-02-01T23:26:21.285Z,3.33
2023-02-01T23:28:50.824Z,4.07
2023-02-01T23:31:18.227Z,4.07
2023-02-01T23:33:46.246Z,4.93
2023-02-01T23:36:16.354Z,4.23
2023-02-01T23:38:44.558Z,4.67
2023-02-01T23:41:13.475Z,4.57
2023-02-01T23:43:59.624Z,5.23
2023-02-01T23:46:31.521Z,5.00
2023-02-01T23:49:00.128Z,5.30
2023-02-01T23:51:28.288Z,5.53
2023-02-01T23:53:56.165Z,5.63
2023-02-01T23:56:23.150Z,6.33
2023-02-01T23:58:51.920Z,6.77
